Time;durP1;ratioP1;P1;durP2;ratioP2;P2;SDS_P1;SDS_P2;PMS_P1;PMS_P2;Temp;Humidity;BMP_temperature;BMP_pressure;BME280_temperature;BME280_humidity;BME280_pressure;Samples;Min_cycle;Max_cycle;Signal;HPM_P1;HPM_P2
2021/04/20 00:01:47;;;;;;;43.70;28.02;;;;;;;12.07;60.80;102032.19;5033539;28;20460;-86
2021/04/20 00:04:14;;;;;;;45.70;28.50;;;;;;;12.03;61.09;102032.25;5028244;28;20068;-86
2021/04/20 00:06:40;;;;;;;38.17;26.30;;;;;;;12.02;61.18;102027.81;5031861;28;20037;-86
2021/04/20 00:09:08;;;;;;;40.38;26.95;;;;;;;12.00;61.29;102029.59;5035711;28;20025;-85
2021/04/20 00:11:37;;;;;;;40.92;27.55;;;;;;;12.00;61.26;102025.19;5035121;28;20135;-86
2021/04/20 00:14:06;;;;;;;40.08;26.73;;;;;;;11.96;61.20;102026.97;5034886;28;20136;-86
2021/04/20 00:16:33;;;;;;;44.85;27.48;;;;;;;11.94;60.65;102023.41;5030871;28;20048;-85
2021/04/20 00:19:00;;;;;;;51.55;30.80;;;;;;;11.90;61.08;102024.31;5031393;28;20037;-85
2021/04/20 00:21:26;;;;;;;49.00;31.27;;;;;;;11.92;60.97;102025.16;5031605;28;20041;-85
2021/04/20 00:23:53;;;;;;;43.95;28.00;;;;;;;11.91;61.55;102017.22;5034837;28;20105;-86
2021/04/20 00:26:20;;;;;;;40.58;26.40;;;;;;;11.89;60.90;102019.91;5032867;28;20439;-86
2021/04/20 00:28:47;;;;;;;45.10;27.20;;;;;;;11.86;61.22;102022.56;5034701;28;20032;-85
2021/04/20 00:31:13;;;;;;;45.83;27.20;;;;;;;11.83;60.91;102022.59;5035166;28;20429;-86
2021/04/20 00:33:41;;;;;;;45.50;27.55;;;;;;;11.84;61.40;102020.81;5036969;28;20036;-85
2021/04/20 00:36:09;;;;;;;45.50;28.52;;;;;;;11.83;61.22;102011.97;5034388;28;20152;-86
2021/04/20 00:38:36;;;;;;;41.53;25.95;;;;;;;11.81;61.75;102016.41;5033916;28;20377;-86
2021/04/20 00:41:06;;;;;;;40.38;26.08;;;;;;;11.81;61.27;102011.09;5033711;28;20538;-86
2021/04/20 00:43:35;;;;;;;47.70;29.60;;;;;;;11.77;61.39;102006.69;5031708;28;20033;-85
2021/04/20 00:46:01;;;;;;;45.70;28.77;;;;;;;11.73;61.33;102010.28;5032205;28;20025;-85
2021/04/20 00:48:28;;;;;;;47.47;28.08;;;;;;;11.69;61.03;102009.41;5033940;28;20033;-85
2021/04/20 00:50:55;;;;;;;42.55;28.55;;;;;;;11.67;61.62;102005.00;5034232;28;20021;-85
2021/04/20 00:53:21;;;;;;;45.42;28.20;;;;;;;11.61;61.72;102001.50;5041902;28;20041;-85
2021/04/20 00:55:48;;;;;;;40.10;27.45;;;;;;;11.59;61.55;102000.59;5036896;28;20057;-85
2021/04/20 00:58:14;;;;;;;45.20;28.83;;;;;;;11.55;61.69;102001.53;5037278;28;20061;-85
2021/04/20 01:00:41;;;;;;;46.42;27.45;;;;;;;11.54;61.96;102001.50;5034507;28;20480;-86
2021/04/20 01:03:08;;;;;;;46.05;27.70;;;;;;;11.54;62.05;101999.75;5034310;28;20029;-85
2021/04/20 01:05:36;;;;;;;45.88;28.60;;;;;;;11.54;61.78;101994.44;5037443;28;20119;-86
2021/04/20 01:08:06;;;;;;;44.42;26.92;;;;;;;11.53;61.71;101997.13;5037275;28;20403;-86
2021/04/20 01:10:39;;;;;;;45.78;27.73;;;;;;;11.53;62.15;101995.34;5034572;28;20045;-86
2021/04/20 01:13:07;;;;;;;44.42;27.45;;;;;;;11.47;62.07;102003.31;5033550;28;20476;-85
2021/04/20 01:15:34;;;;;;;41.42;27.02;;;;;;;11.46;61.91;101998.91;5036410;28;20037;-85
2021/04/20 01:20:59;;;;;;;43.60;27.00;;;;;;;11.45;61.77;101989.16;5068228;28;20413;-86
2021/04/20 01:26:36;;;;;;;49.15;32.33;;;;;;;10.89;64.17;101992.06;5131761;27;20882;-86
2021/04/20 01:29:05;;;;;;;43.83;28.58;;;;;;;11.29;62.59;101994.56;5127648;27;20446;-85
2021/04/20 01:31:33;;;;;;;36.92;25.20;;;;;;;11.37;62.17;101991.00;5126211;28;20028;-86
2021/04/20 01:34:01;;;;;;;41.28;26.48;;;;;;;11.37;62.17;101996.31;5127880;27;20042;-86
2021/04/20 01:36:28;;;;;;;48.13;29.05;;;;;;;11.35;62.16;101988.31;5127893;27;20066;-85
2021/04/20 01:38:56;;;;;;;37.33;24.05;;;;;;;11.31;62.42;101992.81;5121567;28;20020;-85
2021/04/20 01:41:25;;;;;;;32.83;21.88;;;;;;;11.29;62.58;101989.25;5123283;28;20028;-86
2021/04/20 01:43:53;;;;;;;30.88;19.70;;;;;;;11.25;62.41;101987.53;5124831;28;20024;-86
2021/04/20 01:46:21;;;;;;;31.95;19.45;;;;;;;11.23;62.31;101985.75;5121209;28;20038;-86
2021/04/20 01:48:49;;;;;;;33.17;21.27;;;;;;;11.20;62.02;101983.09;5124322;28;20377;-85
2021/04/20 01:51:16;;;;;;;33.10;21.35;;;;;;;11.15;61.85;101981.38;5113538;28;20054;-86
2021/04/20 01:53:43;;;;;;;35.58;22.92;;;;;;;11.15;61.87;101976.06;5124624;28;20062;-86
2021/04/20 01:56:11;;;;;;;40.30;25.73;;;;;;;11.14;62.12;101978.69;5119033;27;20023;-86
2021/04/20 01:58:40;;;;;;;41.17;27.35;;;;;;;11.15;62.13;101975.16;5119554;28;20020;-86
2021/04/20 02:01:10;;;;;;;35.03;23.02;;;;;;;11.13;61.96;101976.97;5114102;28;20036;-85
2021/04/20 02:03:38;;;;;;;38.47;25.60;;;;;;;11.10;62.03;101974.31;5116055;27;20089;-85
2021/04/20 02:06:07;;;;;;;30.70;21.92;;;;;;;11.10;61.87;101979.59;5118729;28;20482;-86
2021/04/20 02:08:35;;;;;;;29.50;20.38;;;;;;;11.05;62.02;101978.75;5126438;27;20425;-85
2021/04/20 02:11:04;;;;;;;29.45;20.10;;;;;;;11.04;62.07;101982.28;5125643;27;20019;-86
2021/04/20 02:13:32;;;;;;;30.80;21.45;;;;;;;10.97;62.53;101984.94;5124583;27;20024;-86
2021/04/20 02:16:04;;;;;;;32.30;21.73;;;;;;;10.94;62.76;101979.69;5122609;27;21408;-85
2021/04/20 02:18:33;;;;;;;32.65;21.75;;;;;;;10.93;62.54;101985.88;5124844;27;20028;-86
2021/04/20 02:21:00;;;;;;;32.80;22.58;;;;;;;10.91;62.54;101982.31;5122696;28;20050;-86
2021/04/20 02:23:27;;;;;;;25.58;18.23;;;;;;;10.86;62.73;101976.16;5120258;27;20119;-86
2021/04/20 02:26:01;;;;;;;26.90;18.58;;;;;;;10.82;62.89;101977.94;5114327;27;20735;-86
2021/04/20 02:28:31;;;;;;;22.38;16.42;;;;;;;10.85;62.38;101982.34;5119167;28;20042;-85
2021/04/20 02:31:01;;;;;;;20.73;15.80;;;;;;;10.80;62.59;101982.38;5112297;28;20445;-86
2021/04/20 02:33:29;;;;;;;24.95;17.20;;;;;;;10.78;62.53;101976.19;5126767;27;20031;-86
2021/04/20 02:35:57;;;;;;;20.00;14.43;;;;;;;10.72;62.32;101973.53;5118505;27;20538;-85
2021/04/20 02:38:25;;;;;;;15.57;12.75;;;;;;;10.68;62.21;101985.06;5108906;28;20043;-86
2021/04/20 02:41:00;;;;;;;17.50;12.48;;;;;;;10.67;62.36;101989.44;5107091;28;20028;-86
2021/04/20 02:43:35;;;;;;;15.73;11.88;;;;;;;10.63;62.44;101978.84;5104082;28;20111;-86
2021/04/20 02:46:08;;;;;;;16.90;12.25;;;;;;;10.59;62.40;101983.31;5099047;28;20035;-85
2021/04/20 02:48:34;;;;;;;16.38;12.38;;;;;;;10.54;62.22;101977.09;5101826;28;20059;-85
2021/04/20 02:51:03;;;;;;;17.83;14.02;;;;;;;10.51;62.26;101977.13;5096924;28;20028;-86
2021/04/20 02:53:31;;;;;;;19.30;13.77;;;;;;;10.51;62.05;101974.47;5102300;28;20080;-86
2021/04/20 02:55:58;;;;;;;18.90;13.52;;;;;;;10.43;62.57;101973.59;5107037;28;20062;-86
2021/04/20 02:58:28;;;;;;;20.40;13.77;;;;;;;10.40;62.59;101978.91;5111705;28;20024;-85
2021/04/20 03:01:02;;;;;;;26.33;14.60;;;;;;;10.31;62.58;101975.34;5114715;28;20031;-86
2021/04/20 03:03:29;;;;;;;44.33;16.15;;;;;;;10.23;62.90;101974.47;5116228;28;20016;-85
2021/04/20 03:06:00;;;;;;;49.65;15.57;;;;;;;10.22;62.78;101975.34;5108907;28;20038;-86
2021/04/20 03:08:27;;;;;;;21.20;14.63;;;;;;;10.17;63.11;101969.19;5105756;28;20470;-86
2021/04/20 03:11:03;;;;;;;23.73;15.27;;;;;;;10.19;62.68;101970.03;5106536;28;20160;-86
2021/04/20 03:13:31;;;;;;;21.75;15.05;;;;;;;10.15;63.01;101969.16;5112831;28;20108;-86
2021/04/20 03:15:57;;;;;;;20.92;15.30;;;;;;;10.14;62.47;101969.16;5107471;28;20027;-86
2021/04/20 03:18:24;;;;;;;23.42;15.82;;;;;;;10.15;62.38;101968.28;5113427;27;20080;-86
2021/04/20 03:20:54;;;;;;;24.65;16.52;;;;;;;10.18;62.56;101968.28;5108739;28;20027;-86
2021/04/20 03:23:21;;;;;;;20.60;14.90;;;;;;;10.15;62.35;101966.50;5106119;28;20081;-86
2021/04/20 03:25:47;;;;;;;21.05;15.25;;;;;;;10.15;62.03;101963.00;5110583;28;20051;-86
2021/04/20 03:28:17;;;;;;;19.60;14.10;;;;;;;10.16;62.37;101959.47;5111398;28;20039;-86
2021/04/20 03:30:43;;;;;;;20.20;14.10;;;;;;;10.13;62.07;101956.81;5101269;28;20039;-86
2021/04/20 03:33:37;;;;;;;19.05;13.30;;;;;;;10.19;62.04;101956.81;5104591;28;20047;-86
2021/04/20 03:36:12;;;;;;;17.95;13.38;;;;;;;10.13;62.44;101954.16;5111618;28;20521;-86
2021/04/20 03:41:29;;;;;;;16.88;12.90;;;;;;;10.02;62.43;101956.81;5069934;28;20605;-86
2021/04/20 03:43:59;;;;;;;18.15;13.38;;;;;;;9.94;62.26;101947.97;5067097;28;20479;-86
2021/04/20 03:46:33;;;;;;;15.90;13.00;;;;;;;9.92;62.64;101950.63;5066005;28;20112;-86
2021/04/20 03:49:11;;;;;;;16.00;12.43;;;;;;;9.92;62.61;101955.03;5066287;28;20020;-86
2021/04/20 03:51:40;;;;;;;16.25;12.38;;;;;;;9.87;62.24;101947.09;5064976;28;20506;-86
2021/04/20 03:54:09;;;;;;;17.05;13.48;;;;;;;9.77;62.73;101950.59;5065629;28;20028;-85
2021/04/20 03:56:37;;;;;;;20.50;12.63;;;;;;;9.70;62.94;101949.72;5063632;28;20025;-86
2021/04/20 03:59:06;;;;;;;15.10;12.82;;;;;;;9.69;62.61;101948.84;5063627;28;20086;-85
2021/04/20 04:01:38;;;;;;;14.07;12.07;;;;;;;9.70;62.43;101947.94;5059923;28;20518;-86
2021/04/20 04:04:10;;;;;;;13.77;12.07;;;;;;;9.70;62.83;101947.94;5064861;28;20024;-86
2021/04/20 04:06:39;;;;;;;16.95;13.35;;;;;;;9.69;62.43;101950.59;5066661;28;20021;-87
2021/04/20 04:09:08;;;;;;;16.17;12.77;;;;;;;9.68;62.45;101946.19;5067903;28;20074;-87
2021/04/20 04:11:38;;;;;;;19.58;14.50;;;;;;;9.71;61.83;101946.19;5063879;28;20503;-87
2021/04/20 04:14:07;;;;;;;19.80;13.82;;;;;;;9.68;61.99;101948.81;5065873;28;20021;-86
2021/04/20 04:16:35;;;;;;;19.77;14.13;;;;;;;9.64;61.90;101950.59;5059711;28;20037;-87
2021/04/20 04:19:03;;;;;;;20.73;14.55;;;;;;;9.63;61.89;101948.84;5061467;28;20029;-87
2021/04/20 04:21:44;;;;;;;20.58;14.43;;;;;;;9.69;61.73;101948.84;5061385;28;20519;-86
2021/04/20 04:24:12;;;;;;;21.83;15.20;;;;;;;9.65;61.84;101947.06;5065438;28;20075;-86
2021/04/20 04:26:43;;;;;;;21.50;14.55;;;;;;;9.67;62.35;101947.97;5062881;28;20109;-86
2021/04/20 04:29:11;;;;;;;21.27;15.90;;;;;;;9.66;61.83;101948.84;5064215;28;20033;-87
2021/04/20 04:31:41;;;;;;;24.42;16.38;;;;;;;9.69;62.28;101946.22;5066102;28;20745;-86
2021/04/20 04:34:09;;;;;;;27.67;17.48;;;;;;;9.68;61.65;101952.38;5066530;28;20029;-86
2021/04/20 04:36:36;;;;;;;26.23;18.38;;;;;;;9.68;62.09;101946.19;5064616;28;20028;-86
2021/04/20 04:39:03;;;;;;;25.25;18.70;;;;;;;9.69;62.08;101951.50;5061986;28;20017;-86
2021/04/20 04:41:30;;;;;;;32.80;19.85;;;;;;;9.67;62.01;101947.97;5060165;28;20021;-86
2021/04/20 04:43:56;;;;;;;31.23;20.35;;;;;;;9.68;61.51;101947.09;5062532;28;20028;-84
2021/04/20 04:46:24;;;;;;;31.35;21.27;;;;;;;9.66;61.68;101948.84;5060424;28;20067;-85
2021/04/20 04:48:51;;;;;;;33.80;21.48;;;;;;;9.65;61.87;101949.72;5066129;28;20020;-86
2021/04/20 04:51:20;;;;;;;43.22;26.33;;;;;;;9.68;61.82;101957.66;5060906;28;20021;-86
2021/04/20 04:53:48;;;;;;;36.13;22.92;;;;;;;9.68;62.38;101944.44;5051317;28;20306;-86
2021/04/20 04:56:18;;;;;;;38.33;23.45;;;;;;;9.70;62.13;101955.88;5049554;28;20396;-86
2021/04/20 04:58:44;;;;;;;30.65;20.13;;;;;;;9.69;62.60;101959.44;5048866;28;20049;-86
2021/04/20 05:01:14;;;;;;;29.13;20.52;;;;;;;9.71;62.62;101957.66;5051493;28;20503;-86
2021/04/20 05:03:41;;;;;;;35.00;21.33;;;;;;;9.70;62.12;101955.03;5050035;28;20052;-86
2021/04/20 05:06:13;;;;;;;34.05;20.95;;;;;;;9.75;62.37;101958.56;5052856;28;20040;-86
2021/04/20 05:08:40;;;;;;;31.73;20.17;;;;;;;9.71;62.16;101957.66;5047817;28;20117;-86
2021/04/20 05:11:06;;;;;;;33.10;21.40;;;;;;;9.74;62.34;101956.78;5048905;28;20033;-86
2021/04/20 05:13:34;;;;;;;37.17;22.45;;;;;;;9.76;62.32;101962.06;5045400;28;20059;-86
2021/04/20 05:16:05;;;;;;;29.77;18.27;;;;;;;9.80;62.75;101958.56;5051854;28;20029;-86
2021/04/20 05:18:33;;;;;;;28.38;17.92;;;;;;;9.79;62.68;101962.09;5050202;28;20029;-86
2021/04/20 05:20:59;;;;;;;29.75;20.10;;;;;;;9.83;62.59;101966.50;5041373;28;20034;-86
2021/04/20 05:23:26;;;;;;;26.70;17.75;;;;;;;9.83;62.41;101962.09;5048125;28;20413;-86
2021/04/20 05:25:53;;;;;;;29.08;18.08;;;;;;;9.90;62.55;101965.63;5044201;28;20034;-86
2021/04/20 05:28:22;;;;;;;28.50;18.23;;;;;;;9.95;62.95;101965.63;5046602;28;21418;-85
2021/04/20 05:30:52;;;;;;;23.88;17.48;;;;;;;9.93;63.09;101970.03;5040250;28;20028;-86
2021/04/20 05:33:18;;;;;;;26.20;17.70;;;;;;;9.98;62.70;101968.28;5038185;28;20399;-87
2021/04/20 05:35:44;;;;;;;26.48;17.13;;;;;;;10.03;62.59;101970.06;5037822;28;20025;-86
2021/04/20 05:38:11;;;;;;;25.13;17.40;;;;;;;10.04;62.92;101966.53;5042792;28;20029;-85
2021/04/20 05:40:40;;;;;;;27.35;18.63;;;;;;;10.10;62.42;101967.41;5040226;28;20041;-86
2021/04/20 05:43:06;;;;;;;25.85;17.35;;;;;;;10.12;62.65;101961.22;5046564;28;20027;-83
2021/04/20 05:45:34;;;;;;;31.95;20.77;;;;;;;10.16;62.85;101962.13;5046497;28;20033;-83
2021/04/20 05:48:02;;;;;;;36.80;22.55;;;;;;;10.18;62.53;101968.28;5042582;28;20029;-83
2021/04/20 05:50:30;;;;;;;41.38;23.40;;;;;;;10.23;62.99;101973.56;5050706;28;20029;-86
2021/04/20 05:52:58;;;;;;;35.20;21.95;;;;;;;10.26;63.68;101976.25;5047198;28;20021;-86
2021/04/20 05:55:24;;;;;;;32.13;21.40;;;;;;;10.30;63.08;101970.91;5046102;28;20032;-86
2021/04/20 05:57:53;;;;;;;29.35;18.45;;;;;;;10.35;63.41;101970.91;5050740;28;20029;-84
2021/04/20 06:00:22;;;;;;;24.63;17.23;;;;;;;10.43;63.43;101976.22;5051110;28;20029;-85
2021/04/20 06:02:51;;;;;;;25.75;17.23;;;;;;;10.47;63.41;101976.25;5046678;28;20090;-85
2021/04/20 06:05:21;;;;;;;23.83;15.98;;;;;;;10.55;63.17;101975.34;5037836;28;20452;-82
2021/04/20 06:07:54;;;;;;;33.78;20.42;;;;;;;10.61;63.09;101978.00;5049376;28;20025;-88
2021/04/20 06:10:20;;;;;;;39.78;23.73;;;;;;;10.63;63.16;101971.81;5046895;28;20049;-88
2021/04/20 06:12:47;;;;;;;32.00;21.25;;;;;;;10.68;63.25;101970.03;5049373;28;20025;-85
2021/04/20 06:15:20;;;;;;;33.30;20.20;;;;;;;10.76;63.21;101972.66;5049317;28;20139;-86
2021/04/20 06:17:46;;;;;;;;;;;;;;;11.04;62.69;101966.38;5046676;28;20064;-86
2021/04/20 06:20:17;;;;;;;34.38;21.88;;;;;;;10.92;62.82;101978.78;5048928;28;19917;-89
2021/04/20 06:22:46;;;;;;;37.83;23.58;;;;;;;10.96;63.03;101980.53;5035786;28;20460;-86
2021/04/20 06:25:15;;;;;;;42.00;24.17;;;;;;;11.03;63.13;101976.09;5038819;28;20075;-86
2021/04/20 06:27:42;;;;;;;49.78;28.83;;;;;;;11.08;63.25;101976.97;5045714;28;20094;-86
2021/04/20 06:30:10;;;;;;;44.45;27.30;;;;;;;11.12;63.34;101975.19;5042000;28;20037;-86
2021/04/20 06:32:39;;;;;;;46.13;27.52;;;;;;;11.23;63.23;101983.97;5035648;28;20384;-86
2021/04/20 06:35:08;;;;;;;42.47;26.42;;;;;;;11.31;63.01;101976.88;5044071;28;20049;-86
2021/04/20 06:37:36;;;;;;;54.35;32.38;;;;;;;11.36;63.18;101978.63;5051149;28;20055;-86
2021/04/20 06:40:10;;;;;;;50.78;29.85;;;;;;;11.45;63.24;101984.75;5045887;28;20112;-87
2021/04/20 06:42:46;;;;;;;50.55;29.00;;;;;;;11.53;63.44;101982.06;5043842;28;20128;-89
2021/04/20 06:45:21;;;;;;;46.20;27.85;;;;;;;11.60;63.36;101977.59;5034659;28;20068;-87
2021/04/20 06:47:58;;;;;;;44.63;27.63;;;;;;;11.69;63.22;101979.31;5043801;28;20029;-88
2021/04/20 06:50:26;;;;;;;53.63;31.95;;;;;;;11.70;63.11;101967.78;5046590;28;20396;-86
2021/04/20 06:52:58;;;;;;;50.95;32.58;;;;;;;11.79;63.11;101973.06;5046114;28;20029;-86
2021/04/20 06:55:36;;;;;;;47.28;28.52;;;;;;;11.85;63.32;101967.69;5034223;28;20045;-85
2021/04/20 06:58:09;;;;;;;51.83;32.38;;;;;;;11.93;62.71;101971.16;5039013;28;20376;-85
2021/04/20 07:00:42;;;;;;;55.15;33.85;;;;;;;12.01;63.06;101979.09;5040708;28;20033;-86
2021/04/20 07:03:29;;;;;;;56.63;33.20;;;;;;;12.08;63.25;101979.97;5045378;28;20097;-87
2021/04/20 07:08:47;;;;;;;60.45;35.45;;;;;;;12.26;62.86;101974.50;5062327;27;20711;-87
2021/04/20 07:11:15;;;;;;;57.63;35.08;;;;;;;12.31;62.79;101969.09;5062600;28;20440;-86
2021/04/20 07:13:47;;;;;;;60.75;35.03;;;;;;;12.41;63.03;101964.59;5062277;28;20029;-86
2021/04/20 07:16:25;;;;;;;62.33;36.17;;;;;;;12.52;63.13;101965.38;5055017;28;20027;-86
2021/04/20 07:22:10;;;;;;;66.85;39.17;;;;;;;12.71;62.94;101966.06;5055134;28;20418;-86
2021/04/20 07:27:49;;;;;;;59.22;35.03;;;;;;;12.92;62.22;101970.28;5072750;28;20439;-85
2021/04/20 07:30:27;;;;;;;63.60;37.75;;;;;;;13.01;62.52;101963.06;5065112;28;20461;-85
2021/04/20 07:36:13;;;;;;;71.38;41.22;;;;;;;13.14;61.89;101964.66;5074492;28;20416;-85
2021/04/20 07:41:44;;;;;;;64.95;38.53;;;;;;;13.43;61.84;101972.31;5104348;27;20392;-85
2021/04/20 07:47:24;;;;;;;68.57;38.30;;;;;;;13.49;61.86;101965.13;5045405;28;20539;-85
2021/04/20 07:52:47;;;;;;;71.22;39.50;;;;;;;13.69;61.33;101973.69;5084411;27;20365;-84
2021/04/20 07:55:25;;;;;;;68.88;40.97;;;;;;;13.85;61.41;101974.34;5089978;28;20539;-86
2021/04/20 07:57:56;;;;;;;64.45;38.80;;;;;;;13.89;61.35;101970.75;5084438;28;20031;-85
2021/04/20 08:00:30;;;;;;;68.28;38.33;;;;;;;14.02;60.79;101971.44;5076303;28;20033;-87
2021/04/20 08:05:48;;;;;;;66.05;39.83;;;;;;;14.22;61.17;101973.75;5145128;27;20460;-84
2021/04/20 08:08:22;;;;;;;68.53;42.13;;;;;;;14.38;60.82;101968.13;5134172;27;20032;-86
2021/04/20 08:10:57;;;;;;;68.05;40.65;;;;;;;14.48;60.72;101969.75;5135396;27;20430;-84
2021/04/20 08:13:34;;;;;;;74.85;43.35;;;;;;;14.58;60.43;101959.81;5127175;27;20035;-85
2021/04/20 08:16:12;;;;;;;68.53;41.03;;;;;;;14.66;60.15;101955.22;5127834;28;20466;-86
2021/04/20 08:18:49;;;;;;;77.10;47.10;;;;;;;14.80;60.13;101954.94;5128181;28;20024;-83
2021/04/20 08:21:15;;;;;;;70.60;41.72;;;;;;;14.84;59.70;101962.00;5128635;27;20020;-84
2021/04/20 08:23:52;;;;;;;69.03;42.20;;;;;;;14.97;59.56;101961.75;5138699;27;20028;-84
2021/04/20 08:26:25;;;;;;;67.20;40.22;;;;;;;15.02;59.52;101960.72;5128668;27;20031;-83
2021/04/20 08:29:17;;;;;;;67.97;40.13;;;;;;;15.14;59.16;101959.59;5127851;28;20030;-84
2021/04/20 08:31:51;;;;;;;61.88;39.30;;;;;;;15.26;59.10;101961.09;5122311;28;20424;-86
2021/04/20 08:34:41;;;;;;;69.78;42.58;;;;;;;15.33;58.75;101953.88;5129556;28;20073;-86
2021/04/20 08:37:23;;;;;;;62.50;37.17;;;;;;;15.44;57.78;101957.16;5124164;28;20478;-86
2021/04/20 08:40:30;;;;;;;70.47;42.20;;;;;;;15.49;56.96;101952.59;5125999;28;20032;-87
2021/04/20 08:43:14;;;;;;;65.72;39.13;;;;;;;15.71;57.63;101959.22;5127951;28;20035;-86
2021/04/20 08:46:12;;;;;;;63.65;41.65;;;;;;;15.79;57.55;101954.59;5128566;28;20065;-86
2021/04/20 08:48:54;;;;;;;63.92;40.22;;;;;;;15.89;57.37;101957.94;5126148;28;20047;-85
2021/04/20 08:54:12;;;;;;;59.85;39.30;;;;;;;15.95;57.37;101952.44;5079160;28;20433;-85
2021/04/20 08:56:48;;;;;;;60.33;38.53;;;;;;;16.11;56.93;101959.19;5051493;28;20029;-85
2021/04/20 08:59:36;;;;;;;57.30;37.67;;;;;;;16.11;57.11;101952.94;5048273;28;20061;-85
2021/04/20 09:05:20;;;;;;;64.22;40.13;;;;;;;16.51;56.35;101957.25;5034810;28;20429;-86
2021/04/20 09:08:02;;;;;;;59.63;38.20;;;;;;;16.60;56.42;101950.78;5003177;28;20049;-85
2021/04/20 09:10:38;;;;;;;54.45;34.25;;;;;;;16.85;54.64;101955.41;5006540;28;20506;-86
2021/04/20 09:14:38;;;;;;;;;;;;;;;;;;;;;
2021/04/20 09:19:10;;;;;;;56.35;37.00;;;;;;;17.10;54.47;101956.50;5301628;22;20377;-94
2021/04/20 09:21:50;;;;;;;55.30;35.73;;;;;;;17.23;54.52;101957.00;5010815;28;20072;-95
2021/04/20 09:27:09;;;;;;;55.22;35.22;;;;;;;17.44;53.59;101957.28;5058369;27;20433;-93
2021/04/20 09:29:43;;;;;;;54.65;34.50;;;;;;;17.51;53.08;101957.94;5045766;28;20033;-93
2021/04/20 09:32:21;;;;;;;54.88;35.58;;;;;;;17.65;52.82;101955.72;5040834;28;20543;-93
2021/04/20 09:34:51;;;;;;;52.30;34.35;;;;;;;17.74;52.75;101952.72;5034263;28;20068;-91
2021/04/20 09:37:25;;;;;;;54.15;34.60;;;;;;;17.85;52.37;101954.22;5033377;28;20029;-92
2021/04/20 09:39:59;;;;;;;50.78;33.15;;;;;;;17.97;52.12;101945.78;5041221;28;20033;-92
2021/04/20 09:42:31;;;;;;;45.83;32.38;;;;;;;18.03;51.97;101953.63;5038206;28;20139;-92
2021/04/20 09:45:12;;;;;;;46.90;32.28;;;;;;;18.24;51.22;101953.81;5035707;28;20115;-91
2021/04/20 09:48:01;;;;;;;48.17;32.28;;;;;;;18.34;50.68;101957.06;5042154;28;20037;-92
2021/04/20 09:54:15;;;;;;;51.95;33.83;;;;;;;18.62;50.01;101945.31;5088792;27;20480;-92
2021/04/20 09:57:22;;;;;;;49.33;34.60;;;;;;;18.73;49.86;101946.69;5066538;28;20033;-92
2021/04/20 09:59:58;;;;;;;47.70;33.05;;;;;;;18.79;49.76;101947.41;5062113;28;20036;-93
2021/04/20 10:03:19;;;;;;;;;;;;;;;;;;;;;
2021/04/20 10:20:37;;;;;;;35.03;23.70;;;;;;;19.63;45.95;101937.91;5089116;28;20154;-93
2021/04/20 10:25:59;;;;;;;31.95;22.70;;;;;;;19.77;44.61;101931.09;5050310;27;853160;-93
2021/04/20 10:28:46;;;;;;;30.35;22.05;;;;;;;19.83;45.04;101930.88;5069712;28;20380;-93
2021/04/20 10:31:20;;;;;;;33.10;22.90;;;;;;;19.91;44.79;101925.16;5063606;28;20095;-93
2021/04/20 10:33:50;;;;;;;34.60;23.75;;;;;;;19.93;44.13;101924.16;5065896;28;20127;-93
2021/04/20 10:36:21;;;;;;;34.25;24.25;;;;;;;20.03;44.08;101928.19;5064905;28;20060;-93
2021/04/20 10:38:48;;;;;;;33.55;23.02;;;;;;;20.10;43.72;101922.56;5062370;28;20017;-91
2021/04/20 10:41:24;;;;;;;31.23;23.98;;;;;;;20.28;42.91;101918.22;5066360;28;20452;-94
2021/04/20 10:43:52;;;;;;;29.38;20.17;;;;;;;20.23;42.29;101922.94;5062752;28;20045;-93
2021/04/20 10:46:24;;;;;;;25.85;18.48;;;;;;;20.26;41.37;101915.59;5053657;28;20144;-93
2021/04/20 10:49:18;;;;;;;24.02;18.40;;;;;;;20.53;40.35;101913.47;5063199;28;20032;-89
2021/04/20 10:52:07;;;;;;;23.85;17.00;;;;;;;20.60;39.77;101910.50;5053184;28;20041;-93
2021/04/20 10:58:20;;;;;;;;;;;;;;;;;;;;;
2021/04/20 11:21:46;;;;;;;19.95;14.20;;;;;;;21.40;37.53;101893.31;4973786;23;20054;-87
2021/04/20 11:24:25;;;;;;;18.50;14.50;;;;;;;21.60;37.28;101886.94;4968537;28;20496;-91
2021/04/20 11:26:59;;;;;;;18.35;13.30;;;;;;;21.73;36.81;101880.94;4966357;28;20038;-88
2021/04/20 11:55:36;;;;;;;19.83;15.20;;;;;;;22.49;35.50;101859.00;5353608;23;20055;-89
2021/04/20 11:59:04;;;;;;;23.60;15.65;;;;;;;22.64;34.88;101859.13;4934687;29;20075;-91
2021/04/20 12:01:55;;;;;;;17.77;12.93;;;;;;;22.74;34.57;101857.66;4922354;29;20164;-90
2021/04/20 12:04:39;;;;;;;18.83;14.13;;;;;;;22.76;34.67;101850.34;4927550;29;20035;-89
2021/04/20 12:07:10;;;;;;;19.33;14.70;;;;;;;22.83;33.62;101846.34;4931014;29;20055;-88
2021/04/20 12:09:43;;;;;;;18.20;13.95;;;;;;;22.94;33.75;101843.91;4930664;29;20047;-89
2021/04/20 12:12:41;;;;;;;19.40;13.80;;;;;;;23.08;32.76;101842.28;4934626;29;20055;-91
2021/04/20 12:15:32;;;;;;;36.60;23.63;;;;;;;23.16;33.32;101848.13;4939307;28;20076;-91
2021/04/20 12:18:12;;;;;;;24.02;17.50;;;;;;;23.13;32.79;101842.88;4927378;29;20035;-91
2021/04/20 12:21:09;;;;;;;20.33;15.73;;;;;;;23.27;32.83;101842.09;4928621;29;20044;-91
2021/04/20 12:24:04;;;;;;;;;;;;;;;;;;;;;
2021/04/20 12:31:39;;;;;;;16.33;13.65;;;;;;;23.20;30.72;101838.00;4844189;29;20068;-91
2021/04/20 12:34:29;;;;;;;14.95;11.63;;;;;;;23.42;31.75;101838.50;4846869;29;20526;-91
2021/04/20 12:40:54;;;;;;;15.73;11.82;;;;;;;23.70;31.42;101828.75;4859918;29;20483;-91
2021/04/20 12:44:39;;;;;;;14.82;11.02;;;;;;;23.71;31.11;101835.03;4899588;29;20495;-85
2021/04/20 12:46:43;;;;;;;14.13;11.18;;;;;;;23.72;30.97;101836.78;4919405;28;20076;-86
2021/04/20 12:49:10;;;;;;;13.52;11.43;;;;;;;23.92;30.76;101826.63;4918390;29;20470;-87
2021/04/20 12:51:40;;;;;;;16.35;12.32;;;;;;;23.90;30.99;101827.56;4920630;29;20536;-83
2021/04/20 12:54:10;;;;;;;17.92;12.52;;;;;;;23.97;30.90;101821.78;4919355;29;20032;-82
2021/04/20 12:56:40;;;;;;;17.42;12.57;;;;;;;24.08;29.16;101815.72;4943423;28;20480;-82
2021/04/20 12:59:20;;;;;;;15.00;12.30;;;;;;;24.32;28.58;101816.03;4923706;29;20035;-82
2021/04/20 13:01:51;;;;;;;16.55;12.43;;;;;;;24.39;28.62;101807.41;4924504;29;20031;-82
2021/04/20 13:04:27;;;;;;;14.95;12.32;;;;;;;24.02;27.36;101809.69;4924816;29;20031;-85
2021/04/20 13:06:54;;;;;;;15.25;12.75;;;;;;;24.36;28.82;101812.13;4926847;29;20491;-83
2021/04/20 13:09:32;;;;;;;14.35;11.80;;;;;;;24.68;28.04;101812.81;4919800;29;20028;-83
2021/04/20 13:11:59;;;;;;;13.15;11.50;;;;;;;24.71;28.52;101811.75;4917953;29;20051;-83
2021/04/20 13:14:26;;;;;;;14.90;11.18;;;;;;;24.70;28.77;101804.63;4931923;28;20522;-83
2021/04/20 13:16:55;;;;;;;14.77;12.55;;;;;;;24.67;29.38;101810.22;4919582;29;20028;-83
2021/04/20 13:19:27;;;;;;;18.00;12.55;;;;;;;24.77;28.18;101805.94;4920479;28;20035;-83
2021/04/20 13:21:54;;;;;;;;;;;;;;;24.83;27.75;101810.09;4940343;28;20051;-83
2021/04/20 13:24:21;;;;;;;15.27;11.63;;;;;;;24.85;27.81;101803.59;4919905;29;19919;-83
2021/04/20 13:26:50;;;;;;;13.30;10.45;;;;;;;25.05;28.63;101804.13;4921700;29;20031;-83
2021/04/20 13:29:19;;;;;;;15.23;12.40;;;;;;;25.06;28.16;101800.47;4917850;28;20392;-83
2021/04/20 13:31:49;;;;;;;16.50;12.88;;;;;;;25.16;27.36;101793.44;4916917;29;20032;-84
2021/04/20 13:34:35;;;;;;;13.00;10.88;;;;;;;24.87;27.70;101796.25;4926588;29;20032;-84
2021/04/20 13:37:06;;;;;;;15.38;12.90;;;;;;;25.06;27.38;101792.34;4926920;29;20051;-83
2021/04/20 13:39:38;;;;;;;15.52;12.35;;;;;;;25.17;27.46;101786.16;4919590;29;20092;-83
2021/04/20 13:42:07;;;;;;;15.40;12.47;;;;;;;25.11;26.35;101786.56;4917931;29;20028;-83
2021/04/20 13:44:38;;;;;;;15.07;13.40;;;;;;;25.08;26.88;101787.66;4917726;29;20067;-81
2021/04/20 13:47:08;;;;;;;16.53;12.90;;;;;;;25.13;26.83;101785.50;4919795;29;20028;-80